Time;durP1;ratioP1;P1;durP2;ratioP2;P2;SDS_P1;SDS_P2;PMS_P1;PMS_P2;Temp;Humidity;BMP_temperature;BMP_pressure;BME280_temperature;BME280_humidity;BME280_pressure;Samples;Min_cycle;Max_cycle;Signal;HPM_P1;HPM_P2
2023/10/21 00:01:39;;;;;;;;;;;;;;;4.57;86.98;99700.64;106043;1254;64646;-74
2023/10/21 00:04:05;;;;;;;;;;;;;;;4.57;87.04;99692.62;105920;1254;123958;-75
2023/10/21 00:06:32;;;;;;;;;;;;;;;4.58;87.04;99690.02;105830;1255;60570;-75
2023/10/21 00:08:58;;;;;;;;;;;;;;;4.56;87.03;99685.65;105862;1258;124446;-75
2023/10/21 00:11:25;;;;;;;;;;;;;;;4.54;86.93;99691.48;105946;1258;72640;-75
2023/10/21 00:13:52;;;;;;;;;;;;;;;4.52;87.13;99696.64;105833;1259;124443;-75
2023/10/21 00:16:18;;;;;;;;;;;;;;;4.51;87.22;99700.61;105918;1256;60441;-75
2023/10/21 00:18:45;;;;;;;;;;;;;;;4.52;87.13;99695.41;105750;1260;60452;-75
2023/10/21 00:21:12;;;;;;;;;;;;;;;4.54;87.29;99693.20;105806;1258;125035;-75
2023/10/21 00:23:39;;;;;;;;;;;;;;;4.54;87.22;99677.23;106008;1261;73614;-75
2023/10/21 00:26:06;;;;;;;;;;;;;;;4.53;87.28;99667.31;105886;1255;124041;-75
2023/10/21 00:28:32;;;;;;;;;;;;;;;4.53;87.40;99660.53;105981;1258;71020;-75
2023/10/21 00:31:03;;;;;;;;;;;;;;;4.51;87.30;99656.66;106011;1261;60440;-74
2023/10/21 00:33:29;;;;;;;;;;;;;;;4.49;87.32;99667.35;108686;1258;123811;-75
2023/10/21 00:35:56;;;;;;;;;;;;;;;4.50;87.45;99675.89;105969;1254;74229;-75
2023/10/21 00:38:23;;;;;;;;;;;;;;;4.51;87.48;99674.19;105801;1258;124556;-75
2023/10/21 00:40:53;;;;;;;;;;;;;;;4.54;87.53;99672.36;106064;1256;72732;-75
2023/10/21 00:43:33;;;;;;;;;;;;;;;4.56;87.50;99674.36;106036;1260;59581;-75
2023/10/21 00:46:19;;;;;;;;;;;;;;;4.58;87.51;99685.02;105986;1256;124423;-75
2023/10/21 00:48:46;;;;;;;;;;;;;;;4.60;87.41;99681.09;105754;1265;72845;-75
2023/10/21 00:51:13;;;;;;;;;;;;;;;4.61;87.47;99670.17;105973;1255;124661;-75
2023/10/21 00:53:39;;;;;;;;;;;;;;;4.63;87.51;99653.20;106040;1257;73029;-74
2023/10/21 00:56:06;;;;;;;;;;;;;;;4.64;87.52;99638.11;105783;1255;124241;-75
2023/10/21 00:58:34;;;;;;;;;;;;;;;4.64;87.47;99639.00;106018;1260;60477;-75
2023/10/21 01:01:06;;;;;;;;;;;;;;;4.63;87.40;99647.98;109148;1254;72312;-75
2023/10/21 01:03:33;;;;;;;;;;;;;;;4.63;87.38;99664.32;108692;1258;124642;-76
2023/10/21 01:05:59;;;;;;;;;;;;;;;4.64;87.42;99672.69;105881;1256;71131;-75
2023/10/21 01:08:26;;;;;;;;;;;;;;;4.63;87.42;99669.20;105941;1260;124206;-75
2023/10/21 01:10:52;;;;;;;;;;;;;;;4.66;87.52;99668.58;105996;1254;60567;-75
2023/10/21 01:13:19;;;;;;;;;;;;;;;4.69;87.64;99671.11;105940;1260;60464;-76
2023/10/21 01:15:46;;;;;;;;;;;;;;;4.71;87.64;99670.48;105846;1267;124007;-75
2023/10/21 01:18:13;;;;;;;;;;;;;;;4.74;87.61;99669.52;105851;1255;71088;-75
2023/10/21 01:20:41;;;;;;;;;;;;;;;4.76;87.66;99673.40;105719;1254;123998;-75
2023/10/21 01:23:07;;;;;;;;;;;;;;;4.76;87.60;99665.23;106039;1260;60509;-75
2023/10/21 01:25:34;;;;;;;;;;;;;;;4.79;87.66;99657.16;106000;1259;73705;-76
2023/10/21 01:28:01;;;;;;;;;;;;;;;4.81;87.67;99658.98;105927;1263;124145;-78
2023/10/21 01:30:27;;;;;;;;;;;;;;;4.83;87.52;99666.85;106001;1254;71429;-74
2023/10/21 01:32:54;;;;;;;;;;;;;;;4.87;87.52;99672.89;105735;1255;124051;-75
2023/10/21 01:35:21;;;;;;;;;;;;;;;4.86;87.50;99667.30;106008;1261;60468;-75
2023/10/21 01:37:48;;;;;;;;;;;;;;;4.87;87.40;99666.09;105782;1260;124348;-77
2023/10/21 01:40:15;;;;;;;;;;;;;;;4.88;87.47;99656.92;106021;1260;67555;-76
2023/10/21 01:42:42;;;;;;;;;;;;;;;4.91;87.54;99655.79;105899;1260;72657;-76
2023/10/21 01:45:08;;;;;;;;;;;;;;;4.93;87.50;99654.63;105646;1254;124123;-76
2023/10/21 01:47:35;;;;;;;;;;;;;;;4.95;87.45;99658.17;105912;1258;60378;-75
2023/10/21 01:50:03;;;;;;;;;;;;;;;4.98;87.55;99651.13;105667;1258;124213;-75
2023/10/21 01:52:29;;;;;;;;;;;;;;;5.00;87.53;99649.63;105961;1255;65959;-80
2023/10/21 01:54:56;;;;;;;;;;;;;;;5.01;87.38;99643.06;106153;1258;72488;-80
2023/10/21 01:57:23;;;;;;;;;;;;;;;5.01;87.41;99634.52;106135;1258;124173;-80
2023/10/21 01:59:49;;;;;;;;;;;;;;;5.01;87.37;99627.06;106159;1259;60516;-75
2023/10/21 02:02:15;;;;;;;;;;;;;;;5.00;87.42;99627.55;105938;1254;124265;-79
2023/10/21 02:04:42;;;;;;;;;;;;;;;5.01;87.32;99628.63;106134;1258;60508;-79
2023/10/21 02:07:09;;;;;;;;;;;;;;;5.02;87.47;99629.35;106053;1257;70929;-81
2023/10/21 02:09:36;;;;;;;;;;;;;;;5.05;87.43;99619.86;105951;1254;124423;-80
2023/10/21 02:12:03;;;;;;;;;;;;;;;5.06;87.33;99608.07;105964;1259;61085;-81
2023/10/21 02:14:30;;;;;;;;;;;;;;;5.08;87.47;99608.83;105985;1254;124796;-81
2023/10/21 02:16:56;;;;;;;;;;;;;;;5.12;87.46;99616.75;106132;1260;65978;-80
2023/10/21 02:19:24;;;;;;;;;;;;;;;5.16;87.50;99618.96;106102;1260;71385;-81
2023/10/21 02:21:51;;;;;;;;;;;;;;;5.19;87.36;99618.34;106008;1259;124050;-80
2023/10/21 02:24:17;;;;;;;;;;;;;;;5.21;87.39;99621.71;105919;1254;60554;-80
2023/10/21 02:26:44;;;;;;;;;;;;;;;5.21;87.36;99618.39;105936;1260;124225;-80
2023/10/21 02:29:10;;;;;;;;;;;;;;;5.22;87.26;99612.17;106043;1257;64704;-81
2023/10/21 02:31:37;;;;;;;;;;;;;;;5.21;87.17;99614.77;105976;1254;71351;-80
2023/10/21 02:34:03;;;;;;;;;;;;;;;5.20;87.18;99611.95;105849;1254;124403;-80
2023/10/21 02:36:30;;;;;;;;;;;;;;;5.19;87.16;99609.67;106047;1256;60322;-81
2023/10/21 02:38:57;;;;;;;;;;;;;;;5.22;87.35;99605.23;105923;1260;125455;-81
2023/10/21 02:41:23;;;;;;;;;;;;;;;5.24;87.18;99596.58;105922;1259;66469;-80
2023/10/21 02:43:50;;;;;;;;;;;;;;;5.24;87.18;99594.85;105815;1260;124366;-80
2023/10/21 02:46:16;;;;;;;;;;;;;;;5.26;87.26;99588.64;105927;1260;60480;-81
2023/10/21 02:48:43;;;;;;;;;;;;;;;5.27;87.21;99590.05;106118;1254;60445;-81
2023/10/21 02:51:10;;;;;;;;;;;;;;;5.28;87.13;99595.99;105912;1254;124273;-80
2023/10/21 02:53:37;;;;;;;;;;;;;;;5.29;87.11;99606.80;106117;1254;60570;-80
2023/10/21 02:56:05;;;;;;;;;;;;;;;5.30;87.17;99620.58;105932;1257;125105;-80
2023/10/21 02:58:32;;;;;;;;;;;;;;;5.32;87.06;99621.86;106121;1255;60476;-80
2023/10/21 03:01:03;;;;;;;;;;;;;;;5.34;87.11;99615.80;106061;1254;60562;-80
2023/10/21 03:03:29;;;;;;;;;;;;;;;5.36;87.16;99607.36;105992;1254;124487;-80
2023/10/21 03:05:56;;;;;;;;;;;;;;;5.39;87.15;99608.11;106034;1254;65064;-80
2023/10/21 03:08:22;;;;;;;;;;;;;;;5.41;87.08;99618.95;105968;1254;124404;-79
2023/10/21 03:10:49;;;;;;;;;;;;;;;5.42;87.03;99627.86;106036;1254;60505;-80
2023/10/21 03:13:15;;;;;;;;;;;;;;;5.46;87.06;99627.77;106210;1255;60605;-79
2023/10/21 03:15:42;;;;;;;;;;;;;;;5.49;87.12;99627.34;106033;1254;124401;-79
2023/10/21 03:18:08;;;;;;;;;;;;;;;5.49;86.97;99646.69;106161;1257;66826;-79
2023/10/21 03:20:35;;;;;;;;;;;;;;;5.53;87.15;99652.02;105935;1254;124536;-80
2023/10/21 03:23:03;;;;;;;;;;;;;;;5.59;87.15;99661.91;105979;1254;60353;-80
2023/10/21 03:25:30;;;;;;;;;;;;;;;5.62;86.98;99665.12;106159;1254;60495;-79
2023/10/21 03:27:56;;;;;;;;;;;;;;;5.66;87.00;99665.06;105890;1259;124782;-79
2023/10/21 03:30:23;;;;;;;;;;;;;;;5.70;87.06;99663.41;106001;1254;60534;-79
2023/10/21 03:32:49;;;;;;;;;;;;;;;5.71;86.93;99660.84;105877;1254;124250;-80
2023/10/21 03:35:16;;;;;;;;;;;;;;;5.72;86.98;99665.05;106142;1254;60387;-80
2023/10/21 03:37:42;;;;;;;;;;;;;;;5.74;86.85;99664.05;106061;1255;58455;-80
2023/10/21 03:40:16;;;;;;;;;;;;;;;5.76;86.95;99653.66;105905;1260;124633;-80
2023/10/21 03:42:43;;;;;;;;;;;;;;;5.79;86.92;99647.98;109189;1254;66597;-81
2023/10/21 03:45:09;;;;;;;;;;;;;;;5.82;86.91;99646.16;105918;1254;124174;-81
2023/10/21 03:47:36;;;;;;;;;;;;;;;5.83;86.85;99642.71;106074;1254;60417;-80
2023/10/21 03:50:03;;;;;;;;;;;;;;;5.84;86.78;99637.33;106034;1254;125110;-80
2023/10/21 03:52:29;;;;;;;;;;;;;;;5.84;86.71;99616.98;106125;1257;73183;-85
2023/10/21 03:54:56;;;;;;;;;;;;;;;5.81;86.49;99606.64;106166;1254;66824;-85
2023/10/21 03:57:23;;;;;;;;;;;;;;;5.78;86.49;99600.61;106638;1257;125428;-84
2023/10/21 03:59:49;;;;;;;;;;;;;;;5.75;86.58;99595.15;106689;1254;59427;-85
2023/10/21 04:02:16;;;;;;;;;;;;;;;5.74;86.60;99592.50;106847;1254;124560;-86
2023/10/21 04:04:43;;;;;;;;;;;;;;;5.74;86.65;99595.64;106884;1254;73059;-84
2023/10/21 04:07:10;;;;;;;;;;;;;;;5.74;86.65;99597.20;106666;1254;65134;-80
2023/10/21 04:09:36;;;;;;;;;;;;;;;5.74;86.61;99596.17;106057;1254;124200;-83
2023/10/21 04:12:03;;;;;;;;;;;;;;;5.73;86.72;99593.54;106006;1261;60496;-83
2023/10/21 04:14:30;;;;;;;;;;;;;;;5.74;86.78;99596.50;105963;1254;124773;-81
2023/10/21 04:16:56;;;;;;;;;;;;;;;5.75;86.86;99592.90;106102;1254;73654;-80
2023/10/21 04:19:23;;;;;;;;;;;;;;;5.77;86.80;99592.07;106036;1254;64831;-80
2023/10/21 04:21:50;;;;;;;;;;;;;;;5.77;86.70;99597.13;105916;1254;124327;-80
2023/10/21 04:24:16;;;;;;;;;;;;;;;5.77;86.89;99595.91;106062;1254;60505;-81
2023/10/21 04:26:43;;;;;;;;;;;;;;;5.76;86.79;99593.45;106112;1255;124841;-81
2023/10/21 04:29:10;;;;;;;;;;;;;;;5.77;86.84;99595.20;106118;1257;72785;-81
2023/10/21 04:31:38;;;;;;;;;;;;;;;5.78;86.98;99592.94;106181;1254;64874;-81
2023/10/21 04:34:05;;;;;;;;;;;;;;;5.78;86.93;99590.35;105992;1257;124636;-80
2023/10/21 04:36:31;;;;;;;;;;;;;;;5.79;86.96;99598.91;105946;1254;60451;-80
2023/10/21 04:38:58;;;;;;;;;;;;;;;5.79;86.96;99596.65;106037;1253;124545;-80
2023/10/21 04:41:24;;;;;;;;;;;;;;;5.80;87.05;99594.75;106062;1254;72615;-80
2023/10/21 04:43:51;;;;;;;;;;;;;;;5.80;86.98;99592.64;106017;1254;124429;-79
2023/10/21 04:46:17;;;;;;;;;;;;;;;5.81;87.04;99601.73;105979;1258;72831;-79
2023/10/21 04:48:44;;;;;;;;;;;;;;;5.82;87.04;99605.96;106027;1255;60584;-81
2023/10/21 04:51:10;;;;;;;;;;;;;;;5.84;87.11;99611.41;105930;1253;125865;-81
2023/10/21 04:53:37;;;;;;;;;;;;;;;5.86;87.13;99613.37;106113;1257;60483;-81
2023/10/21 04:56:04;;;;;;;;;;;;;;;5.89;87.16;99609.95;106032;1255;124399;-76
2023/10/21 04:58:30;;;;;;;;;;;;;;;5.90;87.03;99609.80;106009;1254;70390;-75
2023/10/21 05:00:57;;;;;;;;;;;;;;;5.92;87.20;99606.04;106096;1254;60446;-75
2023/10/21 05:03:23;;;;;;;;;;;;;;;5.95;87.19;99599.70;106005;1255;124286;-75
2023/10/21 05:05:50;;;;;;;;;;;;;;;5.99;87.26;99602.41;106053;1254;73672;-75
2023/10/21 05:08:17;;;;;;;;;;;;;;;6.02;87.15;99604.94;105963;1257;124348;-75
2023/10/21 05:10:43;;;;;;;;;;;;;;;6.05;87.19;99604.48;105924;1257;76306;-76
2023/10/21 05:13:10;;;;;;;;;;;;;;;6.09;87.10;99607.35;106011;1253;60602;-75
2023/10/21 05:15:38;;;;;;;;;;;;;;;6.11;87.13;99607.75;105909;1257;124773;-76
2023/10/21 05:18:05;;;;;;;;;;;;;;;6.12;87.06;99604.29;105958;1257;73859;-76
2023/10/21 05:20:31;;;;;;;;;;;;;;;6.14;87.11;99604.85;105955;1257;124084;-75
2023/10/21 05:22:58;;;;;;;;;;;;;;;6.15;87.07;99608.02;105983;1258;72798;-75
2023/10/21 05:25:25;;;;;;;;;;;;;;;6.16;86.99;99611.17;106004;1254;60554;-75
2023/10/21 05:27:51;;;;;;;;;;;;;;;6.18;87.03;99611.91;105852;1258;124706;-76
2023/10/21 05:30:18;;;;;;;;;;;;;;;6.19;87.11;99609.70;106002;1254;73928;-80
2023/10/21 05:32:44;;;;;;;;;;;;;;;6.21;87.05;99609.75;106707;1257;124280;-79
2023/10/21 05:35:11;;;;;;;;;;;;;;;6.23;87.06;99622.49;106712;1254;72640;-79
2023/10/21 05:37:38;;;;;;;;;;;;;;;6.24;86.96;99629.83;106908;1254;60469;-79
2023/10/21 05:40:06;;;;;;;;;;;;;;;6.26;86.99;99635.80;106674;1257;123948;-79
2023/10/21 05:42:33;;;;;;;;;;;;;;;6.28;87.07;99636.55;106615;1255;73853;-80
2023/10/21 05:44:59;;;;;;;;;;;;;;;6.32;87.09;99636.13;106624;1253;124636;-79
2023/10/21 05:47:26;;;;;;;;;;;;;;;6.34;87.00;99635.65;106582;1254;72757;-79
2023/10/21 05:49:53;;;;;;;;;;;;;;;6.37;87.00;99638.34;106670;1254;124494;-81
2023/10/21 05:52:20;;;;;;;;;;;;;;;6.38;87.03;99637.14;106692;1254;60496;-75
2023/10/21 05:54:46;;;;;;;;;;;;;;;6.39;86.99;99641.19;105984;1260;72225;-76
2023/10/21 05:57:13;;;;;;;;;;;;;;;6.42;86.81;99645.61;105909;1254;124244;-75
2023/10/21 05:59:39;;;;;;;;;;;;;;;6.43;86.92;99643.71;105962;1253;72714;-80
2023/10/21 06:02:07;;;;;;;;;;;;;;;6.46;86.98;99643.42;106564;1254;125371;-74
2023/10/21 06:04:34;;;;;;;;;;;;;;;6.48;86.96;99636.16;106005;1254;61333;-75
2023/10/21 06:07:01;;;;;;;;;;;;;;;6.47;86.77;99635.44;106007;1257;74273;-74
2023/10/21 06:09:27;;;;;;;;;;;;;;;6.46;86.77;99635.41;105918;1255;124621;-78
2023/10/21 06:11:54;;;;;;;;;;;;;;;6.47;86.78;99634.38;106690;1254;72768;-76
2023/10/21 06:14:21;;;;;;;;;;;;;;;6.42;86.66;99624.87;105863;1256;124297;-78
2023/10/21 06:16:48;;;;;;;;;;;;;;;6.41;86.78;99627.98;106615;1254;60405;-81
2023/10/21 06:19:16;;;;;;;;;;;;;;;6.41;86.73;99623.28;106493;1258;71936;-77
2023/10/21 06:21:42;;;;;;;;;;;;;;;6.41;86.71;99623.44;106470;1257;124260;-77
2023/10/21 06:24:09;;;;;;;;;;;;;;;6.41;86.84;99629.38;105989;1256;72738;-76
2023/10/21 06:26:36;;;;;;;;;;;;;;;6.40;86.72;99632.85;105855;1254;124723;-76
2023/10/21 06:29:02;;;;;;;;;;;;;;;6.39;86.83;99631.08;105907;1253;60454;-76
2023/10/21 06:31:29;;;;;;;;;;;;;;;6.40;86.93;99627.26;106110;1254;72094;-82
2023/10/21 06:33:56;;;;;;;;;;;;;;;6.41;86.91;99624.68;106606;1254;124308;-82
2023/10/21 06:36:22;;;;;;;;;;;;;;;6.41;86.85;99618.58;106719;1253;72818;-76
2023/10/21 06:38:49;;;;;;;;;;;;;;;6.41;86.91;99619.97;105976;1256;124402;-74
2023/10/21 06:41:16;;;;;;;;;;;;;;;6.41;86.88;99621.19;106010;1257;60454;-77
2023/10/21 06:43:43;;;;;;;;;;;;;;;6.41;86.90;99628.34;106017;1257;74194;-77
2023/10/21 06:46:10;;;;;;;;;;;;;;;6.45;86.90;99635.55;109062;1254;124431;-73
2023/10/21 06:48:36;;;;;;;;;;;;;;;6.48;87.02;99643.66;109190;1253;72019;-74
2023/10/21 06:51:04;;;;;;;;;;;;;;;6.53;86.98;99645.87;106886;1253;124964;-75
2023/10/21 06:53:30;;;;;;;;;;;;;;;6.57;87.01;99653.63;106056;1254;60442;-76
2023/10/21 06:55:59;;;;;;;;;;;;;;;6.65;87.19;99659.90;106178;1254;125171;-76
2023/10/21 06:58:27;;;;;;;;;;;;;;;6.74;87.51;99666.41;106158;1259;66582;-75
2023/10/21 07:00:54;;;;;;;;;;;;;;;6.84;87.37;99662.78;106174;1255;72689;-77
2023/10/21 07:03:21;;;;;;;;;;;;;;;6.88;87.20;99657.98;106355;1254;124465;-76
2023/10/21 07:05:48;;;;;;;;;;;;;;;6.89;86.90;99660.43;109155;1253;58942;-76
2023/10/21 07:08:14;;;;;;;;;;;;;;;6.90;86.87;99657.87;109143;1254;125371;-76
2023/10/21 07:10:41;;;;;;;;;;;;;;;6.92;86.76;99659.81;106167;1253;64823;-77
2023/10/21 07:13:08;;;;;;;;;;;;;;;6.94;86.77;99663.88;106155;1257;71294;-77
2023/10/21 07:15:34;;;;;;;;;;;;;;;6.95;86.66;99667.56;105913;1256;124099;-76
2023/10/21 07:18:01;;;;;;;;;;;;;;;6.93;86.50;99665.79;106140;1257;60350;-76
2023/10/21 07:20:28;;;;;;;;;;;;;;;6.93;86.53;99660.73;106176;1257;124903;-76
2023/10/21 07:22:54;;;;;;;;;;;;;;;6.95;86.69;99657.44;106286;1254;64487;-75
2023/10/21 07:25:21;;;;;;;;;;;;;;;6.97;86.58;99653.83;106194;1254;71910;-76
2023/10/21 07:27:47;;;;;;;;;;;;;;;6.97;86.55;99654.01;106005;1254;124847;-76
2023/10/21 07:30:14;;;;;;;;;;;;;;;6.98;86.49;99668.69;106199;1257;60441;-76
2023/10/21 07:32:41;;;;;;;;;;;;;;;6.98;86.53;99680.73;105970;1253;125095;-76
2023/10/21 07:35:08;;;;;;;;;;;;;;;7.01;86.55;99701.71;106107;1254;66318;-76
2023/10/21 07:37:34;;;;;;;;;;;;;;;7.06;86.68;99712.80;105984;1253;71397;-76
2023/10/21 07:40:01;;;;;;;;;;;;;;;7.10;86.69;99717.09;105831;1258;124119;-76
2023/10/21 07:42:28;;;;;;;;;;;;;;;7.14;86.65;99722.24;106042;1256;60473;-77
2023/10/21 07:44:55;;;;;;;;;;;;;;;7.18;86.72;99730.88;105895;1258;132122;-76
2023/10/21 07:47:22;;;;;;;;;;;;;;;7.23;86.69;99739.17;106004;1254;64914;-76
2023/10/21 07:49:50;;;;;;;;;;;;;;;7.25;86.56;99746.02;105906;1256;127806;-82
2023/10/21 07:52:17;;;;;;;;;;;;;;;7.27;86.52;99742.23;105944;1258;60473;-83
2023/10/21 07:54:44;;;;;;;;;;;;;;;7.27;86.50;99744.67;106002;1257;60525;-83
2023/10/21 07:57:10;;;;;;;;;;;;;;;7.29;86.44;99747.34;105983;1254;125233;-83
2023/10/21 07:59:37;;;;;;;;;;;;;;;7.29;86.35;99745.25;106105;1254;60520;-83
2023/10/21 08:02:04;;;;;;;;;;;;;;;7.29;86.37;99744.38;106000;1256;125297;-83
2023/10/21 08:04:31;;;;;;;;;;;;;;;7.31;86.39;99747.21;105939;1255;60528;-83
2023/10/21 08:06:58;;;;;;;;;;;;;;;7.33;86.35;99749.86;106032;1257;60439;-84
2023/10/21 08:09:25;;;;;;;;;;;;;;;7.33;86.38;99746.56;105936;1254;124426;-83
2023/10/21 08:11:52;;;;;;;;;;;;;;;7.36;86.39;99744.36;106045;1254;66264;-81
2023/10/21 08:14:19;;;;;;;;;;;;;;;7.41;86.46;99733.63;105963;1254;124520;-81
2023/10/21 08:16:46;;;;;;;;;;;;;;;7.44;86.35;99732.64;105998;1255;60508;-83
2023/10/21 08:19:12;;;;;;;;;;;;;;;7.46;86.42;99741.42;106041;1257;60407;-82
2023/10/21 08:21:39;;;;;;;;;;;;;;;7.49;86.40;99734.50;105866;1254;124341;-83
2023/10/21 08:24:07;;;;;;;;;;;;;;;7.49;86.19;99722.80;106145;1254;64910;-83
2023/10/21 08:26:34;;;;;;;;;;;;;;;7.45;86.02;99725.16;105952;1254;124348;-82
2023/10/21 08:29:00;;;;;;;;;;;;;;;7.44;86.13;99734.91;106007;1254;60428;-82
2023/10/21 08:31:28;;;;;;;;;;;;;;;7.44;86.14;99735.98;106060;1253;60465;-81
2023/10/21 08:33:54;;;;;;;;;;;;;;;7.46;86.27;99735.84;105906;1257;124732;-82
2023/10/21 08:36:22;;;;;;;;;;;;;;;7.48;86.23;99735.34;106105;1254;60542;-83
2023/10/21 08:38:49;;;;;;;;;;;;;;;7.46;86.10;99727.98;105907;1257;124302;-83
2023/10/21 08:41:16;;;;;;;;;;;;;;;7.41;86.03;99714.09;105982;1254;60600;-83
2023/10/21 08:43:46;;;;;;;;;;;;;;;7.40;86.13;99736.42;105976;1254;60459;-83
2023/10/21 08:46:14;;;;;;;;;;;;;;;7.43;86.27;99745.55;109265;1253;73656;-82
2023/10/21 08:48:41;;;;;;;;;;;;;;;7.45;86.27;99750.81;109247;1262;66474;-81
2023/10/21 08:51:09;;;;;;;;;;;;;;;7.47;86.22;99744.95;107207;1256;124346;-83
2023/10/21 08:53:36;;;;;;;;;;;;;;;7.49;86.26;99763.66;108144;1254;60522;-84
2023/10/21 08:56:02;;;;;;;;;;;;;;;7.56;86.33;99780.04;105845;1258;124398;-82
2023/10/21 08:58:29;;;;;;;;;;;;;;;7.61;86.36;99782.77;106000;1255;72562;-82
2023/10/21 09:00:56;;;;;;;;;;;;;;;7.66;86.41;99787.42;106027;1254;64953;-82
2023/10/21 09:03:24;;;;;;;;;;;;;;;7.70;86.29;99790.81;105925;1254;124487;-83
2023/10/21 09:06:12;;;;;;;;;;;;;;;7.72;86.28;99780.39;109266;1254;58559;-83
2023/10/21 09:08:40;;;;;;;;;;;;;;;7.76;86.33;99776.96;108832;1254;124289;-83
2023/10/21 09:11:11;;;;;;;;;;;;;;;7.76;86.12;99769.83;105935;1255;73830;-83
2023/10/21 09:13:38;;;;;;;;;;;;;;;7.78;86.09;99793.27;106035;1254;66859;-82
2023/10/21 09:16:19;;;;;;;;;;;;;;;7.81;86.11;99783.01;105938;1253;124003;-83
2023/10/21 09:19:04;;;;;;;;;;;;;;;7.86;86.15;99791.85;105988;1257;60452;-84
2023/10/21 09:21:41;;;;;;;;;;;;;;;7.92;86.25;99799.67;105849;1254;166888;-82
2023/10/21 09:24:11;;;;;;;;;;;;;;;7.99;86.23;99792.98;105967;1258;72711;-82
2023/10/21 09:26:39;;;;;;;;;;;;;;;8.06;86.26;99784.73;105885;1258;124140;-82
2023/10/21 09:29:11;;;;;;;;;;;;;;;8.11;86.15;99781.85;106066;1255;72689;-83
2023/10/21 09:31:46;;;;;;;;;;;;;;;8.16;86.09;99784.93;106095;1254;60461;-83
2023/10/21 09:34:27;;;;;;;;;;;;;;;8.24;86.10;99777.73;106113;1254;60431;-84
2023/10/21 09:36:54;;;;;;;;;;;;;;;8.28;85.99;99767.48;106349;1255;72580;-84
2023/10/21 09:39:21;;;;;;;;;;;;;;;8.34;86.01;99778.64;105963;1254;124767;-82
2023/10/21 09:41:48;;;;;;;;;;;;;;;8.40;85.99;99782.60;106056;1253;72464;-81
2023/10/21 09:44:15;;;;;;;;;;;;;;;8.48;85.95;99783.45;106049;1254;124797;-82
2023/10/21 09:46:45;;;;;;;;;;;;;;;8.58;86.04;99785.89;106165;1253;60453;-82
2023/10/21 09:49:13;;;;;;;;;;;;;;;8.67;85.92;99790.61;106092;1256;72337;-83
2023/10/21 09:52:00;;;;;;;;;;;;;;;8.75;85.87;99789.35;109136;1253;124162;-83
2023/10/21 09:54:40;;;;;;;;;;;;;;;8.82;85.68;99793.98;106006;1254;72711;-83
2023/10/21 09:57:11;;;;;;;;;;;;;;;8.90;85.63;99799.73;105914;1254;124221;-83
2023/10/21 09:59:38;;;;;;;;;;;;;;;9.00;85.60;99803.23;106050;1254;60444;-83
2023/10/21 10:02:05;;;;;;;;;;;;;;;9.09;85.51;99813.70;105961;1257;124829;-83
2023/10/21 10:04:31;;;;;;;;;;;;;;;9.13;85.23;99816.90;106032;1254;66787;-83
2023/10/21 10:06:58;;;;;;;;;;;;;;;9.17;85.09;99816.09;106038;1254;72700;-82
2023/10/21 10:09:26;;;;;;;;;;;;;;;9.23;85.01;99815.65;105984;1254;124112;-82
2023/10/21 10:11:53;;;;;;;;;;;;;;;9.28;85.01;99818.71;105913;1254;60509;-82
2023/10/21 10:14:20;;;;;;;;;;;;;;;9.31;84.73;99822.62;105836;1254;124337;-82
2023/10/21 10:16:46;;;;;;;;;;;;;;;9.33;84.76;99828.42;105969;1254;65867;-82
2023/10/21 10:19:15;;;;;;;;;;;;;;;9.36;84.68;99833.37;106001;1254;71548;-83
2023/10/21 10:21:42;;;;;;;;;;;;;;;9.38;84.61;99833.74;105936;1259;124594;-83
2023/10/21 10:24:09;;;;;;;;;;;;;;;9.38;84.43;99831.82;105929;1254;60649;-83
2023/10/21 10:26:36;;;;;;;;;;;;;;;9.35;84.37;99831.08;105755;1254;124855;-82
2023/10/21 10:29:19;;;;;;;;;;;;;;;9.35;84.26;99839.30;105941;1258;67661;-83
2023/10/21 10:31:46;;;;;;;;;;;;;;;9.34;84.27;99841.55;105938;1254;71040;-83
2023/10/21 10:34:16;;;;;;;;;;;;;;;9.35;84.31;99838.95;106573;1254;60466;-83
2023/10/21 10:36:42;;;;;;;;;;;;;;;9.38;84.20;99842.15;106564;1255;60493;-82
2023/10/21 10:39:29;;;;;;;;;;;;;;;9.43;84.43;99834.34;105873;1254;124429;-75
2023/10/21 10:41:55;;;;;;;;;;;;;;;9.50;84.34;99837.60;106028;1255;64837;-75
2023/10/21 10:44:22;;;;;;;;;;;;;;;9.57;84.44;99834.91;105981;1256;125239;-75
2023/10/21 10:46:49;;;;;;;;;;;;;;;9.64;84.34;99836.74;105996;1254;60560;-77
2023/10/21 10:49:16;;;;;;;;;;;;;;;9.71;84.16;99848.23;106007;1255;60404;-82
2023/10/21 10:51:43;;;;;;;;;;;;;;;9.74;84.07;99853.00;105901;1255;124301;-82
2023/10/21 10:54:15;;;;;;;;;;;;;;;9.78;84.11;99849.55;106027;1254;65292;-83
2023/10/21 10:56:49;;;;;;;;;;;;;;;9.85;84.11;99845.80;105928;1256;124312;-83
2023/10/21 10:59:17;;;;;;;;;;;;;;;9.95;84.17;99837.70;105890;1254;60534;-82
2023/10/21 11:01:45;;;;;;;;;;;;;;;10.06;84.16;99838.88;106082;1254;60751;-83
2023/10/21 11:04:11;;;;;;;;;;;;;;;10.14;83.98;99838.10;106616;1257;124408;-83
2023/10/21 11:06:43;;;;;;;;;;;;;;;10.26;84.00;99837.55;106644;1254;66298;-83
2023/10/21 11:09:19;;;;;;;;;;;;;;;10.34;83.65;99836.08;106498;1257;126799;-82
2023/10/21 11:11:46;;;;;;;;;;;;;;;10.31;83.32;99836.38;105993;1254;60906;-82
2023/10/21 11:14:14;;;;;;;;;;;;;;;10.30;83.24;99830.05;105861;1258;124702;-82
2023/10/21 11:16:41;;;;;;;;;;;;;;;10.32;83.24;99824.30;106098;1256;73883;-82
2023/10/21 11:19:07;;;;;;;;;;;;;;;10.37;83.21;99827.34;106064;1257;65983;-82
2023/10/21 11:21:35;;;;;;;;;;;;;;;10.39;83.04;99834.55;105969;1253;124320;-82
2023/10/21 11:24:02;;;;;;;;;;;;;;;10.35;82.82;99831.89;106191;1257;60420;-82
2023/10/21 11:26:28;;;;;;;;;;;;;;;10.34;82.69;99832.57;105923;1254;125710;-82
2023/10/21 11:28:55;;;;;;;;;;;;;;;10.37;82.77;99832.61;106025;1254;72667;-82
2023/10/21 11:31:22;;;;;;;;;;;;;;;10.46;82.91;99831.83;105947;1258;66083;-83
2023/10/21 11:33:49;;;;;;;;;;;;;;;10.59;83.07;99827.75;105931;1255;124540;-83
2023/10/21 11:36:16;;;;;;;;;;;;;;;10.73;82.96;99835.61;106096;1258;60502;-83
2023/10/21 11:38:42;;;;;;;;;;;;;;;10.82;82.83;99840.27;105965;1256;124635;-83
2023/10/21 11:41:13;;;;;;;;;;;;;;;10.92;82.83;99839.99;106023;1253;73634;-83
2023/10/21 11:43:41;;;;;;;;;;;;;;;11.00;82.58;99839.55;106045;1255;65357;-83
2023/10/21 11:46:08;;;;;;;;;;;;;;;11.03;82.28;99840.27;106461;1254;123517;-83
2023/10/21 11:48:37;;;;;;;;;;;;;;;11.03;82.03;99845.89;106492;1258;60503;-82
2023/10/21 11:51:07;;;;;;;;;;;;;;;11.02;82.04;99850.27;108528;1254;124022;-82
2023/10/21 11:53:34;;;;;;;;;;;;;;;11.03;82.09;99854.66;106026;1258;73978;-83
2023/10/21 11:56:51;;;;;;;;;;;;;;;11.01;81.80;99864.29;105985;1254;123764;-83
2023/10/21 12:05:18;;;;;;;;;;;;;;;10.93;81.81;99888.97;106037;1257;60454;-83
2023/10/21 12:34:52;;;;;;;;;;;;;;;10.31;82.09;99902.69;106106;1254;72982;-83
2023/10/21 12:39:57;;;;;;;;;;;;;;;10.36;82.37;99907.48;105906;1255;124301;-84
2023/10/21 12:42:28;;;;;;;;;;;;;;;10.40;82.43;99913.14;106029;1254;60322;-83
2023/10/21 12:44:57;;;;;;;;;;;;;;;10.44;82.56;99916.52;105961;1254;124396;-83
2023/10/21 12:47:24;;;;;;;;;;;;;;;10.49;82.58;99915.02;106052;1258;72620;-83
2023/10/21 12:49:50;;;;;;;;;;;;;;;10.56;82.56;99919.30;105909;1255;64813;-83
2023/10/21 12:52:17;;;;;;;;;;;;;;;10.60;82.55;99919.17;106036;1260;72818;-83
2023/10/21 12:54:44;;;;;;;;;;;;;;;10.64;82.47;99924.80;105912;1255;60544;-83
2023/10/21 12:57:11;;;;;;;;;;;;;;;10.67;82.55;99923.29;106426;1254;124386;-83
2023/10/21 12:59:38;;;;;;;;;;;;;;;10.72;82.46;99922.64;106028;1255;74402;-83
2023/10/21 13:02:07;;;;;;;;;;;;;;;10.78;82.51;99924.45;105876;1258;125047;-83
2023/10/21 13:04:37;;;;;;;;;;;;;;;10.85;82.57;99926.81;105843;1259;71366;-83
2023/10/21 13:07:04;;;;;;;;;;;;;;;10.92;82.59;99928.11;105965;1254;60617;-83
2023/10/21 13:09:31;;;;;;;;;;;;;;;10.98;82.38;99929.92;105964;1256;125701;-83
2023/10/21 13:11:58;;;;;;;;;;;;;;;11.02;82.30;99926.98;105981;1254;72590;-83
2023/10/21 13:14:27;;;;;;;;;;;;;;;11.02;82.23;99932.95;105859;1258;124951;-83
2023/10/21 13:16:53;;;;;;;;;;;;;;;11.00;82.11;99933.81;106127;1256;72229;-83
2023/10/21 13:19:21;;;;;;;;;;;;;;;11.00;82.24;99928.89;106180;1253;60655;-82